createdAt,value
2022-08-23T00:03:59.943Z,20.85
2022-08-23T00:09:23.704Z,20.86
2022-08-23T00:14:49.305Z,20.84
2022-08-23T00:20:14.962Z,20.81
2022-08-23T00:25:36.821Z,20.80
2022-08-23T00:30:59.589Z,20.91
2022-08-23T00:36:21.405Z,20.98
2022-08-23T00:41:44.201Z,20.83
2022-08-23T00:47:07.774Z,20.69
2022-08-23T00:52:38.070Z,20.68
2022-08-23T00:58:01.541Z,20.79
2022-08-23T01:03:25.947Z,20.91
2022-08-23T01:08:54.703Z,21.14
2022-08-23T01:14:19.654Z,20.88
2022-08-23T01:19:48.595Z,20.70
2022-08-23T01:25:14.244Z,20.38
2022-08-23T01:30:36.341Z,20.32
2022-08-23T01:36:00.991Z,20.13
2022-08-23T01:41:26.017Z,19.83
2022-08-23T01:46:47.871Z,20.13
2022-08-23T01:52:09.699Z,19.75
2022-08-23T01:57:33.797Z,19.71
2022-08-23T02:02:55.944Z,19.83
2022-08-23T02:08:17.805Z,19.99
2022-08-23T02:13:39.637Z,20.06
2022-08-23T02:19:03.028Z,20.07
2022-08-23T02:24:25.775Z,20.18
2022-08-23T02:29:47.717Z,20.00
2022-08-23T02:35:09.624Z,20.00
2022-08-23T02:40:31.468Z,19.91
2022-08-23T02:45:53.300Z,19.97
2022-08-23T02:51:15.830Z,19.81
2022-08-23T02:56:37.706Z,20.04
2022-08-23T03:01:59.604Z,19.85
2022-08-23T03:07:21.488Z,19.99
2022-08-23T03:12:43.320Z,19.90
2022-08-23T03:18:05.982Z,19.98
2022-08-23T03:23:28.444Z,20.03
2022-08-23T03:28:50.346Z,20.18
2022-08-23T03:34:12.393Z,20.19
2022-08-23T03:39:34.307Z,20.17
2022-08-23T03:44:56.931Z,20.11
2022-08-23T03:50:24.483Z,20.27
2022-08-23T03:55:46.707Z,20.55
2022-08-23T04:01:08.525Z,20.81
2022-08-23T04:06:30.352Z,21.05
2022-08-23T04:11:52.155Z,21.46
2022-08-23T04:17:15.109Z,21.74
2022-08-23T04:22:37.011Z,21.65
2022-08-23T04:27:59.659Z,21.55
2022-08-23T04:33:22.252Z,21.51
2022-08-23T04:38:44.092Z,21.39
2022-08-23T04:44:05.985Z,21.67
2022-08-23T04:49:27.776Z,21.97
2022-08-23T04:54:49.649Z,21.72
2022-08-23T05:00:13.059Z,21.83
2022-08-23T05:05:34.880Z,22.09
2022-08-23T05:11:00.429Z,22.41
2022-08-23T05:16:22.315Z,22.98
2022-08-23T05:21:44.363Z,24.01
2022-08-23T05:27:07.877Z,25.43
2022-08-23T05:32:33.650Z,27.33
2022-08-23T05:37:55.714Z,27.46
2022-08-23T05:43:17.895Z,28.02
2022-08-23T05:48:43.241Z,27.08
2022-08-23T05:54:08.010Z,26.92
2022-08-23T05:59:30.798Z,27.56
2022-08-23T06:04:57.159Z,27.99
2022-08-23T06:10:19.637Z,28.19
2022-08-23T06:15:44.920Z,27.49
2022-08-23T06:21:09.197Z,27.25
2022-08-23T06:26:34.516Z,26.91
2022-08-23T06:31:56.348Z,26.54
2022-08-23T06:37:18.252Z,28.27
2022-08-23T06:42:40.580Z,27.91
2022-08-23T06:48:02.715Z,27.74
2022-08-23T06:53:24.712Z,28.27
2022-08-23T06:58:46.534Z,28.48
2022-08-23T07:04:11.084Z,28.58
2022-08-23T07:09:33.526Z,28.36
2022-08-23T07:14:55.355Z,29.48
2022-08-23T07:20:17.375Z,30.85
2022-08-23T07:25:42.251Z,30.46
2022-08-23T07:31:12.377Z,32.69
2022-08-23T07:36:37.857Z,32.71
2022-08-23T07:42:01.359Z,32.50
2022-08-23T07:47:48.249Z,31.44
2022-08-23T07:53:11.984Z,31.25
2022-08-23T07:58:34.147Z,31.93
2022-08-23T08:03:58.720Z,33.41
2022-08-23T08:09:20.584Z,34.87
2022-08-23T08:14:42.413Z,35.32
2022-08-23T08:20:04.985Z,32.94
2022-08-23T08:25:26.924Z,31.08
2022-08-23T08:30:48.726Z,30.02
2022-08-23T08:36:36.177Z,29.14
2022-08-23T08:42:05.276Z,30.64
2022-08-23T08:47:40.852Z,30.58
2022-08-23T08:53:13.069Z,30.96
2022-08-23T08:58:49.220Z,30.89
2022-08-23T09:04:11.502Z,30.78
2022-08-23T09:10:05.195Z,31.46
2022-08-23T09:15:40.497Z,31.57
2022-08-23T09:21:05.520Z,30.98
2022-08-23T09:26:30.845Z,30.69
2022-08-23T09:31:55.097Z,31.33
2022-08-23T09:37:18.596Z,32.61
2022-08-23T09:42:42.051Z,33.59
2022-08-23T09:48:05.711Z,34.37
2022-08-23T09:53:27.564Z,32.84
2022-08-23T09:58:50.073Z,32.61
2022-08-23T10:04:21.542Z,31.51
2022-08-23T10:09:43.393Z,31.50
2022-08-23T10:15:05.672Z,31.77
2022-08-23T10:20:50.807Z,31.78
2022-08-23T10:26:25.143Z,31.62
2022-08-23T10:32:02.373Z,31.57
2022-08-23T10:37:33.143Z,30.77
2022-08-23T10:43:19.785Z,31.40
2022-08-23T10:48:52.415Z,30.81
2022-08-23T10:54:30.817Z,30.82
2022-08-23T10:59:53.111Z,31.07
2022-08-23T11:05:26.356Z,30.75
2022-08-23T11:10:56.029Z,31.33
2022-08-23T11:16:30.554Z,31.05
2022-08-23T11:22:14.287Z,31.35
2022-08-23T11:27:41.524Z,30.97
2022-08-23T11:33:34.419Z,31.39
2022-08-23T11:38:56.190Z,30.78
2022-08-23T11:44:24.106Z,30.94
2022-08-23T11:50:06.087Z,31.34
2022-08-23T11:55:49.226Z,30.88
2022-08-23T12:01:13.888Z,31.31
2022-08-23T12:06:51.267Z,30.77
2022-08-23T12:12:13.231Z,30.56
2022-08-23T12:17:35.005Z,31.02
2022-08-23T12:23:15.548Z,30.32
2022-08-23T12:28:43.728Z,30.60
2022-08-23T12:34:20.874Z,30.87
2022-08-23T12:39:52.751Z,30.55
2022-08-23T12:45:22.916Z,30.94
2022-08-23T12:50:51.686Z,30.94
2022-08-23T12:56:31.561Z,30.95
2022-08-23T13:01:54.579Z,30.82
2022-08-23T13:07:22.420Z,31.29
2022-08-23T13:12:44.763Z,31.20
2022-08-23T13:18:06.869Z,31.25
2022-08-23T13:23:28.995Z,30.95
2022-08-23T13:29:06.371Z,31.52
2022-08-23T13:34:47.198Z,30.77
2022-08-23T13:40:18.435Z,31.20
2022-08-23T13:45:51.268Z,31.12
2022-08-23T13:51:28.404Z,30.92
2022-08-23T13:56:53.809Z,31.29
2022-08-23T14:02:16.191Z,30.67
2022-08-23T14:07:38.024Z,31.02
2022-08-23T14:13:00.344Z,31.22
2022-08-23T14:18:22.308Z,30.46
2022-08-23T14:23:44.146Z,30.61
2022-08-23T14:29:05.942Z,30.15
2022-08-23T14:34:29.478Z,30.00
2022-08-23T14:39:51.526Z,29.98
2022-08-23T14:45:15.648Z,29.98
2022-08-23T14:50:38.671Z,29.92
2022-08-23T14:56:20.264Z,29.75
2022-08-23T15:01:42.583Z,29.76
2022-08-23T15:07:20.979Z,29.77
2022-08-23T15:13:12.918Z,29.68
2022-08-23T15:18:25.434Z,29.70
2022-08-23T15:23:47.477Z,29.60
2022-08-23T15:29:09.278Z,29.37
2022-08-23T15:34:33.347Z,29.44
2022-08-23T15:39:57.521Z,29.51
2022-08-23T15:45:19.529Z,29.48
2022-08-23T15:50:44.656Z,29.53
2022-08-23T15:56:13.231Z,29.26
2022-08-23T16:01:35.108Z,29.38
2022-08-23T16:06:58.209Z,29.40
2022-08-23T16:12:20.070Z,29.21
2022-08-23T16:17:41.982Z,29.20
2022-08-23T16:23:04.200Z,29.28
2022-08-23T16:28:26.146Z,29.09
2022-08-23T16:33:48.299Z,28.74
2022-08-23T16:39:11.265Z,28.40
2022-08-23T16:44:34.324Z,28.01
2022-08-23T16:49:56.179Z,27.89
2022-08-23T16:55:18.138Z,27.66
2022-08-23T17:00:40.468Z,27.47
2022-08-23T17:06:02.311Z,27.35
2022-08-23T17:11:24.187Z,27.19
2022-08-23T17:16:52.032Z,27.06
2022-08-23T17:22:13.969Z,26.83
2022-08-23T17:27:37.048Z,26.72
2022-08-23T17:32:59.349Z,26.67
2022-08-23T17:38:21.223Z,26.47
2022-08-23T17:43:43.022Z,26.45
2022-08-23T17:49:06.573Z,26.38
2022-08-23T17:54:28.408Z,26.26
2022-08-23T17:59:50.276Z,26.20
2022-08-23T18:05:12.509Z,26.12
2022-08-23T18:10:34.882Z,25.94
2022-08-23T18:15:56.751Z,25.92
2022-08-23T18:21:18.592Z,25.79
2022-08-23T18:26:42.997Z,25.65
2022-08-23T18:32:06.964Z,25.48
2022-08-23T18:37:28.904Z,25.25
2022-08-23T18:42:50.973Z,25.26
2022-08-23T18:48:12.981Z,25.07
2022-08-23T18:53:35.465Z,25.02
2022-08-23T18:58:57.295Z,24.90
2022-08-23T19:04:19.253Z,24.71
2022-08-23T19:09:41.295Z,24.40
2022-08-23T19:15:04.043Z,24.19
2022-08-23T19:20:25.934Z,24.23
2022-08-23T19:25:48.389Z,24.25
2022-08-23T19:31:10.352Z,24.19
2022-08-23T19:36:46.249Z,24.18
2022-08-23T19:42:11.699Z,24.12
2022-08-23T19:47:34.303Z,24.13
2022-08-23T19:52:58.528Z,24.16
2022-08-23T19:58:20.374Z,24.08
2022-08-23T20:03:42.219Z,24.04
2022-08-23T20:09:05.684Z,24.04
2022-08-23T20:14:29.774Z,23.86
2022-08-23T20:19:51.599Z,23.84
2022-08-23T20:25:13.607Z,23.84
2022-08-23T20:30:36.081Z,23.86
2022-08-23T20:35:57.871Z,23.79
2022-08-23T20:41:20.380Z,23.75
2022-08-23T20:46:42.711Z,23.69
2022-08-23T20:52:05.922Z,23.66
2022-08-23T20:57:28.556Z,23.56
2022-08-23T21:02:53.861Z,23.51
2022-08-23T21:08:16.570Z,23.49
2022-08-23T21:13:38.998Z,23.37
2022-08-23T21:19:01.386Z,23.37
2022-08-23T21:24:23.226Z,23.36
2022-08-23T21:29:45.044Z,23.23
2022-08-23T21:35:07.394Z,23.12
2022-08-23T21:40:30.462Z,23.07
2022-08-23T21:45:52.389Z,23.05
2022-08-23T21:51:14.325Z,23.02
2022-08-23T21:56:37.271Z,23.08
2022-08-23T22:01:59.107Z,23.00
2022-08-23T22:07:21.091Z,22.59
2022-08-23T22:12:43.138Z,22.89
2022-08-23T22:18:05.678Z,22.57
2022-08-23T22:23:29.561Z,22.46
2022-08-23T22:28:51.357Z,22.45
2022-08-23T22:34:13.235Z,22.58
2022-08-23T22:39:35.127Z,22.60
2022-08-23T22:44:56.954Z,22.56
2022-08-23T22:50:18.831Z,22.32
2022-08-23T22:55:41.047Z,22.33
2022-08-23T23:01:05.710Z,22.24
2022-08-23T23:06:33.104Z,22.24
2022-08-23T23:11:54.998Z,22.23
2022-08-23T23:17:16.802Z,22.12
2022-08-23T23:22:38.653Z,22.12
2022-08-23T23:28:01.110Z,22.01
2022-08-23T23:39:51.382Z,21.92
2022-08-23T23:45:13.926Z,21.90
2022-08-23T23:50:39.555Z,21.88
2022-08-23T23:56:09.773Z,21.81
